createdAt,value
2023-05-19T00:00:20.178Z,14.18
2023-05-19T00:02:47.709Z,14.11
2023-05-19T00:05:18.777Z,14.05
2023-05-19T00:07:45.854Z,14.01
2023-05-19T00:10:13.452Z,13.99
2023-05-19T00:12:40.758Z,14.01
2023-05-19T00:15:08.879Z,14.05
2023-05-19T00:17:38.583Z,14.11
2023-05-19T00:20:07.588Z,14.17
2023-05-19T00:22:34.681Z,14.22
2023-05-19T00:25:01.763Z,14.29
2023-05-19T00:27:28.809Z,14.35
2023-05-19T00:29:56.236Z,14.42
2023-05-19T00:32:23.338Z,14.49
2023-05-19T00:34:50.647Z,14.54
2023-05-19T00:37:17.763Z,14.60
2023-05-19T00:39:44.793Z,14.64
2023-05-19T00:42:11.870Z,14.67
2023-05-19T00:44:40.915Z,14.70
2023-05-19T00:47:11.040Z,14.75
2023-05-19T00:49:38.096Z,14.77
2023-05-19T00:52:06.348Z,14.79
2023-05-19T00:54:34.492Z,14.82
2023-05-19T00:57:01.783Z,14.83
2023-05-19T00:59:28.841Z,14.84
2023-05-19T01:01:56.081Z,14.86
2023-05-19T01:04:25.789Z,14.91
2023-05-19T01:06:56.061Z,14.96
2023-05-19T01:09:23.188Z,15.02
2023-05-19T01:11:50.821Z,15.09
2023-05-19T01:14:18.342Z,15.16
2023-05-19T01:16:58.639Z,15.24
2023-05-19T01:20:02.438Z,15.27
2023-05-19T01:23:11.234Z,15.28
2023-05-19T01:26:20.994Z,15.28
2023-05-19T01:29:28.521Z,15.27
2023-05-19T01:31:56.332Z,15.26
2023-05-19T01:34:23.806Z,15.23
2023-05-19T01:36:50.965Z,15.18
2023-05-19T01:39:18.523Z,15.13
2023-05-19T01:41:45.759Z,15.06
2023-05-19T01:44:12.819Z,15.00
2023-05-19T01:46:39.907Z,14.93
2023-05-19T01:49:06.974Z,14.86
2023-05-19T01:51:34.488Z,14.79
2023-05-19T01:54:01.602Z,14.71
2023-05-19T01:56:55.214Z,14.65
2023-05-19T01:59:48.781Z,14.60
2023-05-19T02:02:36.655Z,14.54
2023-05-19T02:05:10.283Z,14.51
2023-05-19T02:07:43.052Z,14.49
2023-05-19T02:10:19.526Z,14.50
2023-05-19T02:12:46.622Z,14.52
2023-05-19T02:15:18.021Z,14.54
2023-05-19T02:17:50.993Z,14.55
2023-05-19T02:20:18.421Z,14.55
2023-05-19T02:22:45.589Z,14.55
2023-05-19T02:25:13.597Z,14.55
2023-05-19T02:27:41.614Z,14.57
2023-05-19T02:30:09.420Z,14.61
2023-05-19T02:32:37.290Z,14.66
2023-05-19T02:35:05.040Z,14.70
2023-05-19T02:37:32.789Z,14.76
2023-05-19T02:39:59.887Z,14.83
2023-05-19T02:42:26.968Z,14.94
2023-05-19T02:44:54.829Z,15.21
2023-05-19T02:47:22.136Z,15.58
2023-05-19T02:49:49.216Z,15.93
2023-05-19T02:52:16.368Z,16.25
2023-05-19T02:54:43.485Z,16.42
2023-05-19T02:57:11.397Z,16.42
2023-05-19T02:59:38.584Z,16.34
2023-05-19T03:02:05.759Z,16.23
2023-05-19T03:04:32.995Z,16.10
2023-05-19T03:07:00.058Z,16.01
2023-05-19T03:09:27.244Z,16.01
2023-05-19T03:11:54.366Z,16.24
2023-05-19T03:14:24.278Z,16.64
2023-05-19T03:16:51.805Z,17.10
2023-05-19T03:19:19.164Z,17.56
2023-05-19T03:21:46.603Z,17.92
2023-05-19T03:24:13.977Z,18.29
2023-05-19T03:26:42.336Z,18.62
2023-05-19T03:29:09.741Z,19.01
2023-05-19T03:31:37.499Z,19.43
2023-05-19T03:34:05.276Z,19.78
2023-05-19T03:36:32.404Z,20.09
2023-05-19T03:39:00.134Z,20.35
2023-05-19T03:41:27.704Z,20.54
2023-05-19T03:43:54.720Z,20.76
2023-05-19T03:46:21.928Z,20.89
2023-05-19T03:48:59.843Z,21.12
2023-05-19T03:51:35.264Z,21.26
2023-05-19T03:54:08.606Z,21.26
2023-05-19T03:56:39.333Z,21.38
2023-05-19T03:59:07.992Z,21.61
2023-05-19T04:01:36.960Z,21.80
2023-05-19T04:04:04.234Z,21.75
2023-05-19T04:06:31.400Z,21.63
2023-05-19T04:08:59.680Z,21.52
2023-05-19T04:11:26.799Z,21.41
2023-05-19T04:13:53.900Z,21.53
2023-05-19T04:16:21.519Z,21.59
2023-05-19T04:18:48.876Z,21.69
2023-05-19T04:21:16.065Z,22.02
2023-05-19T04:23:43.635Z,22.35
2023-05-19T04:26:10.769Z,22.50
2023-05-19T04:28:40.243Z,22.83
2023-05-19T04:31:11.090Z,22.94
2023-05-19T04:33:39.221Z,23.04
2023-05-19T04:36:09.067Z,23.31
2023-05-19T04:38:40.171Z,23.55
2023-05-19T04:41:11.120Z,23.51
2023-05-19T04:43:44.839Z,23.29
2023-05-19T04:46:13.900Z,23.01
2023-05-19T04:48:42.017Z,22.77
2023-05-19T04:51:09.153Z,22.61
2023-05-19T04:53:36.846Z,22.59
2023-05-19T04:56:05.369Z,22.57
2023-05-19T04:58:32.529Z,22.54
2023-05-19T05:01:00.740Z,22.60
2023-05-19T05:03:28.312Z,22.76
2023-05-19T05:05:56.980Z,22.99
2023-05-19T05:08:24.033Z,23.21
2023-05-19T05:10:52.709Z,23.25
2023-05-19T05:13:24.038Z,23.43
2023-05-19T05:15:53.214Z,23.85
2023-05-19T05:18:20.994Z,24.16
2023-05-19T05:20:48.682Z,24.42
2023-05-19T05:23:16.969Z,24.63
2023-05-19T05:25:46.953Z,24.70
2023-05-19T05:28:14.844Z,24.68
2023-05-19T05:30:42.358Z,24.58
2023-05-19T05:33:09.658Z,24.53
2023-05-19T05:35:38.832Z,24.28
2023-05-19T05:38:06.860Z,24.18
2023-05-19T05:40:34.199Z,24.22
2023-05-19T05:43:01.652Z,24.36
2023-05-19T05:45:31.294Z,24.53
2023-05-19T05:48:00.174Z,24.61
2023-05-19T05:50:27.655Z,24.71
2023-05-19T05:52:55.061Z,24.85
2023-05-19T05:55:23.051Z,24.85
2023-05-19T05:57:50.863Z,24.72
2023-05-19T06:00:18.881Z,24.65
2023-05-19T06:02:51.607Z,24.64
2023-05-19T06:05:19.488Z,24.61
2023-05-19T06:07:47.265Z,24.48
2023-05-19T06:10:18.638Z,24.34
2023-05-19T06:12:46.494Z,24.22
2023-05-19T06:15:13.632Z,24.19
2023-05-19T06:17:53.153Z,24.20
2023-05-19T06:20:20.742Z,24.22
2023-05-19T06:22:47.854Z,24.25
2023-05-19T06:25:15.281Z,24.16
2023-05-19T06:27:42.654Z,24.09
2023-05-19T06:30:10.064Z,24.06
2023-05-19T06:32:46.427Z,24.09
2023-05-19T06:35:13.736Z,24.12
2023-05-19T06:37:40.894Z,24.17
2023-05-19T06:40:09.018Z,24.25
2023-05-19T06:42:36.477Z,24.32
2023-05-19T06:45:26.239Z,24.45
2023-05-19T06:47:54.805Z,24.51
2023-05-19T06:50:22.099Z,24.57
2023-05-19T06:52:49.568Z,24.68
2023-05-19T06:55:16.764Z,24.76
2023-05-19T06:57:43.913Z,24.88
2023-05-19T07:00:14.496Z,24.93
2023-05-19T07:02:44.490Z,24.81
2023-05-19T07:05:11.636Z,24.69
2023-05-19T07:07:38.885Z,24.56
2023-05-19T07:10:08.404Z,24.47
2023-05-19T07:12:35.703Z,24.48
2023-05-19T07:15:03.256Z,24.51
2023-05-19T07:17:31.202Z,24.46
2023-05-19T07:19:59.168Z,24.39
2023-05-19T07:22:26.277Z,24.47
2023-05-19T07:24:53.456Z,24.53
2023-05-19T07:27:20.676Z,24.63
2023-05-19T07:29:47.697Z,24.70
2023-05-19T07:32:14.768Z,24.67
2023-05-19T07:34:41.852Z,24.77
2023-05-19T07:37:08.914Z,24.95
2023-05-19T07:39:36.066Z,25.04
2023-05-19T07:42:03.462Z,25.07
2023-05-19T07:44:31.637Z,25.15
2023-05-19T07:46:58.687Z,25.27
2023-05-19T07:49:25.806Z,25.43
2023-05-19T07:51:54.351Z,25.59
2023-05-19T07:54:21.671Z,25.68
2023-05-19T07:56:48.764Z,25.84
2023-05-19T07:59:16.090Z,26.08
2023-05-19T08:01:43.211Z,26.19
2023-05-19T08:04:12.916Z,26.18
2023-05-19T08:06:42.937Z,26.34
2023-05-19T08:09:10.674Z,26.47
2023-05-19T08:11:37.774Z,26.54
2023-05-19T08:14:05.053Z,26.59
2023-05-19T08:16:32.185Z,26.67
2023-05-19T08:19:02.822Z,26.80
2023-05-19T08:21:30.061Z,26.94
2023-05-19T08:23:57.440Z,27.05
2023-05-19T08:26:24.627Z,27.07
2023-05-19T08:28:51.725Z,27.07
2023-05-19T08:31:19.210Z,26.95
2023-05-19T08:33:46.484Z,26.90
2023-05-19T08:36:13.536Z,26.82
2023-05-19T08:38:40.563Z,26.92
2023-05-19T08:41:07.620Z,26.97
2023-05-19T08:43:34.759Z,27.00
2023-05-19T08:46:01.993Z,27.14
2023-05-19T08:48:30.877Z,27.29
2023-05-19T08:54:08.956Z,27.44
2023-05-19T08:56:36.490Z,27.46
2023-05-19T08:59:04.436Z,27.49
2023-05-19T09:01:31.798Z,27.50
2023-05-19T09:03:59.119Z,27.50
2023-05-19T09:06:26.844Z,27.44
2023-05-19T09:08:53.993Z,27.22
2023-05-19T09:11:22.938Z,26.99
2023-05-19T09:13:50.235Z,27.01
2023-05-19T09:16:18.132Z,27.17
2023-05-19T09:18:58.027Z,27.36
2023-05-19T09:21:31.569Z,27.47
2023-05-19T09:24:06.592Z,27.38
2023-05-19T09:26:43.268Z,27.31
2023-05-19T09:29:14.480Z,27.48
2023-05-19T09:31:51.279Z,27.81
2023-05-19T09:34:19.019Z,28.14
2023-05-19T09:36:49.652Z,28.23
2023-05-19T09:39:17.340Z,28.16
2023-05-19T09:41:44.644Z,28.22
2023-05-19T09:44:30.526Z,28.44
2023-05-19T09:46:58.741Z,28.49
2023-05-19T09:49:29.688Z,28.11
2023-05-19T09:51:57.762Z,27.74
2023-05-19T09:54:25.445Z,27.71
2023-05-19T09:57:00.485Z,27.66
2023-05-19T09:59:30.472Z,27.47
2023-05-19T10:02:00.015Z,27.32
2023-05-19T10:04:28.338Z,27.45
2023-05-19T10:06:59.857Z,27.69
2023-05-19T10:09:28.537Z,27.71
2023-05-19T10:11:59.080Z,27.51
2023-05-19T10:14:27.559Z,27.37
2023-05-19T10:16:56.129Z,27.29
2023-05-19T10:19:25.955Z,27.36
2023-05-19T10:21:53.477Z,27.77
2023-05-19T10:24:21.686Z,28.17
2023-05-19T10:27:04.118Z,28.28
2023-05-19T10:29:33.972Z,28.03
2023-05-19T10:32:03.326Z,27.67
2023-05-19T10:35:08.547Z,27.32
2023-05-19T10:38:03.890Z,26.91
2023-05-19T10:40:33.983Z,26.67
2023-05-19T10:43:25.769Z,26.51
2023-05-19T10:45:53.803Z,26.29
2023-05-19T10:48:21.947Z,26.19
2023-05-19T10:50:49.282Z,26.12
2023-05-19T10:53:18.460Z,26.06
2023-05-19T10:55:53.906Z,26.06
2023-05-19T10:58:36.732Z,26.07
2023-05-19T11:01:07.148Z,26.04
2023-05-19T11:03:44.764Z,26.00
2023-05-19T11:06:18.343Z,26.13
2023-05-19T11:08:45.403Z,26.31
2023-05-19T11:11:17.030Z,26.65
2023-05-19T11:13:48.345Z,27.08
2023-05-19T11:16:15.456Z,27.57
2023-05-19T11:18:42.671Z,28.06
2023-05-19T11:21:09.763Z,28.33
2023-05-19T11:23:43.678Z,28.51
2023-05-19T11:26:11.102Z,28.69
2023-05-19T11:28:38.123Z,28.89
2023-05-19T11:31:08.308Z,28.98
2023-05-19T11:33:35.411Z,28.75
2023-05-19T11:36:02.545Z,28.50
2023-05-19T11:38:30.452Z,28.22
2023-05-19T11:40:57.807Z,27.83
2023-05-19T11:43:25.456Z,27.45
2023-05-19T11:45:54.104Z,27.08
2023-05-19T11:48:22.238Z,26.79
2023-05-19T11:50:49.346Z,26.61
2023-05-19T11:53:22.243Z,26.43
2023-05-19T11:55:49.872Z,26.30
2023-05-19T11:58:17.561Z,26.18
2023-05-19T12:00:46.462Z,26.11
2023-05-19T12:03:13.776Z,26.08
2023-05-19T12:05:46.701Z,26.06
2023-05-19T12:08:14.622Z,26.17
2023-05-19T12:10:41.945Z,26.53
2023-05-19T12:13:11.929Z,27.07
2023-05-19T12:15:39.285Z,27.54
2023-05-19T12:18:06.866Z,27.90
2023-05-19T12:20:36.331Z,28.21
2023-05-19T12:23:04.115Z,28.35
2023-05-19T12:25:32.212Z,28.25
2023-05-19T12:28:00.837Z,28.00
2023-05-19T12:30:29.108Z,27.89
2023-05-19T12:32:57.965Z,27.92
2023-05-19T12:35:29.669Z,28.05
2023-05-19T12:37:56.833Z,28.11
2023-05-19T12:40:23.947Z,28.22
2023-05-19T12:42:53.502Z,28.42
2023-05-19T12:45:21.680Z,28.63
2023-05-19T12:47:49.014Z,28.64
2023-05-19T12:50:16.428Z,28.48
2023-05-19T12:52:53.346Z,28.25
2023-05-19T12:55:21.344Z,28.08
2023-05-19T12:57:57.538Z,28.10
2023-05-19T13:00:28.117Z,28.14
2023-05-19T13:03:00.453Z,28.15
2023-05-19T13:05:28.605Z,28.10
2023-05-19T13:08:00.474Z,27.95
2023-05-19T13:10:28.361Z,27.71
2023-05-19T13:12:55.873Z,27.43
2023-05-19T13:15:24.503Z,27.24
2023-05-19T13:17:51.857Z,27.07
2023-05-19T13:20:19.621Z,26.95
2023-05-19T13:22:47.833Z,26.85
2023-05-19T13:25:15.035Z,26.77
2023-05-19T13:27:42.102Z,26.71
2023-05-19T13:30:09.473Z,26.68
2023-05-19T13:32:36.614Z,26.69
2023-05-19T13:35:03.910Z,26.73
2023-05-19T13:37:31.023Z,26.82
2023-05-19T13:40:01.411Z,26.85
2023-05-19T13:42:28.516Z,26.94
2023-05-19T13:44:56.624Z,27.14
2023-05-19T13:47:24.197Z,27.39
2023-05-19T13:49:51.870Z,27.63
2023-05-19T13:52:20.958Z,27.68
2023-05-19T13:54:48.751Z,27.49
2023-05-19T13:57:16.601Z,27.24
2023-05-19T14:00:00.129Z,26.95
2023-05-19T14:02:40.017Z,26.59
2023-05-19T14:05:08.161Z,26.37
2023-05-19T14:07:35.733Z,26.18
2023-05-19T14:10:04.168Z,26.03
2023-05-19T14:12:41.511Z,25.89
2023-05-19T14:15:14.806Z,25.72
2023-05-19T14:17:42.148Z,25.59
2023-05-19T14:20:10.163Z,25.48
2023-05-19T14:22:37.225Z,25.40
2023-05-19T14:25:04.483Z,25.32
2023-05-19T14:27:31.506Z,25.25
2023-05-19T14:29:58.649Z,25.20
2023-05-19T14:32:27.901Z,25.17
2023-05-19T14:34:56.545Z,25.13
2023-05-19T14:37:24.382Z,25.07
2023-05-19T14:39:51.414Z,25.01
2023-05-19T14:42:18.534Z,24.95
2023-05-19T14:44:45.645Z,24.89
2023-05-19T14:47:12.846Z,24.83
2023-05-19T14:49:40.047Z,24.79
2023-05-19T14:52:07.345Z,24.76
2023-05-19T14:54:34.471Z,24.73
2023-05-19T14:57:01.886Z,24.68
2023-05-19T14:59:29.995Z,24.65
2023-05-19T15:01:57.036Z,24.60
2023-05-19T15:04:24.160Z,24.52
2023-05-19T15:07:05.970Z,24.46
2023-05-19T15:09:36.708Z,24.39
2023-05-19T15:12:03.933Z,24.36
2023-05-19T15:14:31.486Z,24.32
2023-05-19T15:16:59.173Z,24.30
2023-05-19T15:19:27.095Z,24.28
2023-05-19T15:21:54.457Z,24.27
2023-05-19T15:24:21.622Z,24.23
2023-05-19T15:26:48.844Z,24.21
2023-05-19T15:29:16.110Z,24.22
2023-05-19T15:31:43.341Z,24.27
2023-05-19T15:34:10.535Z,24.28
2023-05-19T15:36:37.577Z,24.27
2023-05-19T15:39:05.324Z,24.28
2023-05-19T15:41:32.399Z,24.31
2023-05-19T15:44:03.073Z,24.29
2023-05-19T15:46:30.759Z,24.21
2023-05-19T15:48:57.904Z,24.14
2023-05-19T15:51:25.484Z,24.07
2023-05-19T15:53:52.797Z,24.00
2023-05-19T15:56:19.974Z,23.93
2023-05-19T15:58:47.173Z,23.86
2023-05-19T16:01:15.159Z,23.81
2023-05-19T16:03:42.527Z,23.76
2023-05-19T16:06:09.890Z,23.69
2023-05-19T16:08:38.244Z,23.62
2023-05-19T16:11:05.523Z,23.55
2023-05-19T16:13:33.836Z,23.51
2023-05-19T16:16:01.315Z,23.48
2023-05-19T16:18:31.372Z,23.48
2023-05-19T16:20:58.490Z,23.47
2023-05-19T16:23:25.590Z,23.46
2023-05-19T16:25:54.898Z,23.45
2023-05-19T16:28:23.902Z,23.47
2023-05-19T16:30:51.981Z,23.47
2023-05-19T16:33:19.089Z,23.46
2023-05-19T16:35:46.222Z,23.45
2023-05-19T16:38:13.250Z,23.44
2023-05-19T16:40:40.356Z,23.42
2023-05-19T16:43:07.480Z,23.40
2023-05-19T16:45:34.660Z,23.37
2023-05-19T16:48:02.028Z,23.32
2023-05-19T16:50:29.744Z,23.25
2023-05-19T16:52:56.888Z,23.17
2023-05-19T16:55:25.879Z,23.09
2023-05-19T16:57:53.012Z,23.01
2023-05-19T17:00:20.329Z,22.89
2023-05-19T17:02:48.154Z,22.72
2023-05-19T17:05:15.474Z,22.59
2023-05-19T17:07:42.508Z,22.49
2023-05-19T17:10:09.865Z,22.39
2023-05-19T17:12:37.110Z,22.29
2023-05-19T17:15:04.655Z,22.22
2023-05-19T17:17:31.805Z,22.15
2023-05-19T17:19:58.938Z,22.09
2023-05-19T17:22:26.660Z,22.01
2023-05-19T17:24:55.048Z,21.93
2023-05-19T17:27:22.142Z,21.83
2023-05-19T17:29:49.334Z,21.75
2023-05-19T17:32:16.451Z,21.66
2023-05-19T17:34:43.554Z,21.56
2023-05-19T17:37:10.976Z,21.44
2023-05-19T17:39:38.062Z,21.33
2023-05-19T17:42:05.376Z,21.24
2023-05-19T17:44:32.584Z,21.12
2023-05-19T17:47:00.609Z,21.01
2023-05-19T17:49:27.708Z,20.87
2023-05-19T17:51:55.238Z,20.73
2023-05-19T17:54:22.613Z,20.59
2023-05-19T17:56:49.733Z,20.47
2023-05-19T17:59:17.045Z,20.36
2023-05-19T18:01:44.567Z,20.26
2023-05-19T18:04:13.920Z,20.16
2023-05-19T18:06:44.707Z,20.03
2023-05-19T18:09:13.392Z,19.86
2023-05-19T18:11:41.029Z,19.70
2023-05-19T18:14:08.184Z,19.57
2023-05-19T18:16:35.277Z,19.42
2023-05-19T18:19:03.105Z,19.27
2023-05-19T18:21:31.625Z,19.10
2023-05-19T18:24:00.697Z,18.94
2023-05-19T18:26:27.706Z,18.76
2023-05-19T18:28:54.787Z,18.62
2023-05-19T18:31:23.400Z,18.50
2023-05-19T18:33:50.614Z,18.40
2023-05-19T18:36:19.369Z,18.29
2023-05-19T18:38:47.803Z,18.19
2023-05-19T18:41:14.972Z,18.07
2023-05-19T18:43:42.026Z,17.99
2023-05-19T18:53:51.468Z,17.69
2023-05-19T18:56:26.521Z,17.55
2023-05-19T18:58:54.660Z,17.39
2023-05-19T19:01:21.864Z,17.25
2023-05-19T19:03:50.163Z,17.10
2023-05-19T19:06:17.505Z,16.93
2023-05-19T19:08:44.753Z,16.75
2023-05-19T19:11:11.962Z,16.66
2023-05-19T19:13:40.047Z,16.62
2023-05-19T19:16:08.476Z,16.60
2023-05-19T19:18:36.705Z,16.56
2023-05-19T19:21:06.145Z,16.51
2023-05-19T19:23:33.867Z,16.43
2023-05-19T19:26:01.596Z,16.34
2023-05-19T19:28:28.776Z,16.21
2023-05-19T19:30:56.990Z,16.13
2023-05-19T19:33:25.004Z,16.06
2023-05-19T19:35:52.375Z,15.98
2023-05-19T19:38:19.814Z,15.89
2023-05-19T19:40:46.924Z,15.79
2023-05-19T19:43:17.863Z,15.70
2023-05-19T19:45:45.422Z,15.62
2023-05-19T19:48:13.321Z,15.54
2023-05-19T19:50:41.849Z,15.46
2023-05-19T19:53:09.149Z,15.39
2023-05-19T19:55:36.998Z,15.31
2023-05-19T19:58:04.643Z,15.24
2023-05-19T20:00:33.035Z,15.17
2023-05-19T20:05:30.336Z,15.04
2023-05-19T20:07:57.512Z,14.99
2023-05-19T20:10:24.601Z,14.91
2023-05-19T20:12:52.033Z,14.85
2023-05-19T20:15:19.239Z,14.83
2023-05-19T20:17:46.411Z,14.81
2023-05-19T20:20:13.740Z,14.78
2023-05-19T20:22:40.863Z,14.75
2023-05-19T20:25:08.298Z,14.72
2023-05-19T20:27:35.376Z,14.66
2023-05-19T20:30:02.414Z,14.55
2023-05-19T20:32:29.440Z,14.48
2023-05-19T20:34:56.780Z,14.42
2023-05-19T20:37:24.018Z,14.38
2023-05-19T20:39:51.125Z,14.33
2023-05-19T20:42:18.188Z,14.29
2023-05-19T20:44:45.213Z,14.23
2023-05-19T20:47:12.366Z,14.17
2023-05-19T20:49:39.448Z,14.09
2023-05-19T20:52:06.784Z,14.00
2023-05-19T20:54:33.924Z,13.94
2023-05-19T20:57:06.529Z,13.83
2023-05-19T20:59:33.664Z,13.73
2023-05-19T21:02:00.967Z,13.67
2023-05-19T21:04:28.122Z,13.61
2023-05-19T21:06:55.239Z,13.53
2023-05-19T21:11:48.350Z,13.45
2023-05-19T21:14:15.428Z,13.37
2023-05-19T21:16:42.702Z,13.30
2023-05-19T21:19:09.848Z,13.25
2023-05-19T21:21:38.556Z,13.22
2023-05-19T21:24:05.853Z,13.21
2023-05-19T21:26:32.946Z,13.16
2023-05-19T21:28:59.986Z,13.11
2023-05-19T21:31:27.055Z,13.08
2023-05-19T21:33:54.121Z,13.05
2023-05-19T21:36:21.224Z,13.01
2023-05-19T21:38:48.326Z,12.98
2023-05-19T21:41:15.454Z,12.97
2023-05-19T21:43:45.203Z,12.95
2023-05-19T21:46:12.453Z,12.95
2023-05-19T21:48:39.819Z,12.95
2023-05-19T21:51:07.127Z,12.95
2023-05-19T21:53:34.217Z,12.88
2023-05-19T21:56:01.333Z,12.81
2023-05-19T21:58:28.434Z,12.74
2023-05-19T22:00:56.275Z,12.69
2023-05-19T22:03:24.091Z,12.66
2023-05-19T22:05:52.712Z,12.61
2023-05-19T22:08:20.248Z,12.57
2023-05-19T22:10:53.276Z,12.51
2023-05-19T22:13:20.515Z,12.47
2023-05-19T22:15:47.691Z,12.46
2023-05-19T22:18:14.833Z,12.44
2023-05-19T22:20:41.930Z,12.39
2023-05-19T22:23:09.041Z,12.35
2023-05-19T22:25:36.112Z,12.31
2023-05-19T22:28:03.307Z,12.28
2023-05-19T22:30:31.018Z,12.23
2023-05-19T22:32:58.176Z,12.20
2023-05-19T22:35:25.681Z,12.16
2023-05-19T22:37:52.786Z,12.15
2023-05-19T22:40:19.877Z,12.11
2023-05-19T22:42:46.959Z,12.03
2023-05-19T22:45:14.389Z,11.97
2023-05-19T22:47:41.473Z,11.92
2023-05-19T22:50:12.445Z,11.90
2023-05-19T22:52:39.522Z,11.86
2023-05-19T22:55:07.347Z,11.86
2023-05-19T22:57:34.401Z,11.86
2023-05-19T23:00:01.463Z,11.87
2023-05-19T23:02:28.520Z,11.85
2023-05-19T23:04:55.883Z,11.86
2023-05-19T23:07:22.988Z,11.89
2023-05-19T23:09:50.173Z,11.92
2023-05-19T23:12:17.319Z,11.91
2023-05-19T23:14:44.413Z,11.89
2023-05-19T23:17:11.760Z,11.86
2023-05-19T23:19:39.073Z,11.80
2023-05-19T23:22:06.068Z,11.75
2023-05-19T23:24:33.152Z,11.71
2023-05-19T23:27:01.270Z,11.63
2023-05-19T23:29:28.466Z,11.55
2023-05-19T23:31:55.518Z,11.54
2023-05-19T23:34:22.610Z,11.54
2023-05-19T23:36:49.643Z,11.46
2023-05-19T23:39:16.720Z,11.38
2023-05-19T23:41:43.809Z,11.35
2023-05-19T23:44:10.896Z,11.35
2023-05-19T23:46:37.996Z,11.34
2023-05-19T23:49:05.189Z,11.34
2023-05-19T23:51:32.290Z,11.29
2023-05-19T23:53:59.412Z,11.21
2023-05-19T23:56:26.550Z,11.18
2023-05-19T23:58:53.570Z,11.21
